createdAt,value
2018-05-10T00:00:07.533Z,98564.59
2018-05-10T00:00:38.733Z,98565.91
2018-05-10T00:01:09.937Z,98569.45
2018-05-10T00:01:41.166Z,98566.80
2018-05-10T00:02:12.382Z,98565.72
2018-05-10T00:02:43.601Z,98566.45
2018-05-10T00:03:14.853Z,98562.36
2018-05-10T00:03:46.053Z,98566.03
2018-05-10T00:04:17.274Z,98570.30
2018-05-10T00:04:48.489Z,98568.85
2018-05-10T00:05:19.710Z,98568.78
2018-05-10T00:05:50.954Z,98576.20
2018-05-10T00:06:22.186Z,98573.55
2018-05-10T00:06:53.420Z,98576.83
2018-05-10T00:07:24.638Z,98578.05
2018-05-10T00:07:55.859Z,98578.39
2018-05-10T00:08:27.069Z,98579.31
2018-05-10T00:08:58.297Z,98575.47
2018-05-10T00:09:29.518Z,98573.95
2018-05-10T00:10:00.712Z,98578.11
2018-05-10T00:10:31.917Z,98579.32
2018-05-10T00:11:03.152Z,98581.42
2018-05-10T00:11:34.436Z,98578.11
2018-05-10T00:12:05.646Z,98581.19
2018-05-10T00:12:36.885Z,98577.25
2018-05-10T00:13:08.094Z,98579.95
2018-05-10T00:13:39.304Z,98581.84
2018-05-10T00:14:10.557Z,98583.16
2018-05-10T00:14:41.786Z,98579.20
2018-05-10T00:15:13.018Z,98570.59
2018-05-10T00:15:44.237Z,98582.00
2018-05-10T00:16:15.485Z,98578.81
2018-05-10T00:16:46.693Z,98578.27
2018-05-10T00:17:17.899Z,98577.63
2018-05-10T00:17:49.109Z,98584.70
2018-05-10T00:18:20.318Z,98578.59
2018-05-10T00:18:51.535Z,98580.28
2018-05-10T00:19:22.784Z,98576.16
2018-05-10T00:19:53.985Z,98581.11
2018-05-10T00:20:25.187Z,98578.05
2018-05-10T00:20:56.400Z,98582.77
2018-05-10T00:21:27.650Z,98577.18
2018-05-10T00:21:58.858Z,98578.48
2018-05-10T00:22:30.090Z,98580.76
2018-05-10T00:23:01.301Z,98583.34
2018-05-10T00:23:32.501Z,98585.59
2018-05-10T00:24:03.712Z,98584.59
2018-05-10T00:24:34.956Z,98582.17
2018-05-10T00:25:06.173Z,98581.55
2018-05-10T00:25:37.390Z,98582.02
2018-05-10T00:26:08.613Z,98583.22
2018-05-10T00:26:39.824Z,98580.92
2018-05-10T00:27:11.057Z,98583.44
2018-05-10T00:27:42.278Z,98583.01
2018-05-10T00:28:13.539Z,98584.23
2018-05-10T00:28:44.794Z,98589.39
2018-05-10T00:29:16.012Z,98580.03
2018-05-10T00:29:47.270Z,98581.63
2018-05-10T00:30:18.481Z,98580.55
2018-05-10T00:30:49.726Z,98579.86
2018-05-10T00:31:20.957Z,98581.52
2018-05-10T00:31:52.185Z,98585.81
2018-05-10T00:32:23.408Z,98577.24
2018-05-10T00:32:54.617Z,98581.47
2018-05-10T00:33:25.860Z,98577.16
2018-05-10T00:33:59.271Z,98574.17
2018-05-10T00:34:30.541Z,98573.88
2018-05-10T00:35:01.889Z,98574.55
2018-05-10T00:35:33.128Z,98577.88
2018-05-10T00:36:04.341Z,98580.16
2018-05-10T00:36:35.610Z,98575.39
2018-05-10T00:37:06.829Z,98573.73
2018-05-10T00:37:38.044Z,98572.81
2018-05-10T00:38:09.297Z,98572.41
2018-05-10T00:38:40.525Z,98574.68
2018-05-10T00:39:11.758Z,98572.11
2018-05-10T00:39:43.010Z,98571.05
2018-05-10T00:40:14.274Z,98573.13
2018-05-10T00:40:45.527Z,98572.35
2018-05-10T00:41:16.765Z,98573.13
2018-05-10T00:41:48.004Z,98568.21
2018-05-10T00:42:19.232Z,98575.95
2018-05-10T00:42:50.486Z,98578.65
2018-05-10T00:43:21.697Z,98574.44
2018-05-10T00:43:52.899Z,98578.02
2018-05-10T00:44:24.164Z,98576.30
2018-05-10T00:44:55.372Z,98573.23
2018-05-10T00:45:26.593Z,98574.06
2018-05-10T00:45:57.833Z,98573.18
2018-05-10T00:46:29.040Z,98574.55
2018-05-10T00:47:00.282Z,98576.45
2018-05-10T00:47:31.500Z,98576.56
2018-05-10T00:48:02.713Z,98573.41
2018-05-10T00:48:33.922Z,98574.24
2018-05-10T00:49:05.179Z,98571.17
2018-05-10T00:49:36.522Z,98572.61
2018-05-10T00:50:07.701Z,98568.83
2018-05-10T00:50:38.948Z,98575.30
2018-05-10T00:51:10.229Z,98567.77
2018-05-10T00:51:41.417Z,98568.16
2018-05-10T00:52:12.672Z,98568.91
2018-05-10T00:52:43.888Z,98571.55
2018-05-10T00:53:15.121Z,98572.12
2018-05-10T00:53:46.356Z,98567.02
2018-05-10T00:54:17.569Z,98569.66
2018-05-10T00:54:48.829Z,98569.78
2018-05-10T00:55:20.050Z,98570.03
2018-05-10T00:55:51.253Z,98569.16
2018-05-10T00:56:22.452Z,98566.89
2018-05-10T00:56:53.670Z,98569.44
2018-05-10T00:57:24.903Z,98572.39
2018-05-10T00:57:56.130Z,98569.67
2018-05-10T00:58:27.356Z,98566.20
2018-05-10T00:58:58.696Z,98567.92
2018-05-10T00:59:29.944Z,98569.38
2018-05-10T01:00:01.188Z,98571.44
2018-05-10T01:00:32.418Z,98570.72
2018-05-10T01:01:03.691Z,98568.37
2018-05-10T01:01:34.931Z,98574.45
2018-05-10T01:02:06.146Z,98571.75
2018-05-10T01:02:37.404Z,98570.75
2018-05-10T01:03:08.609Z,98573.02
2018-05-10T01:03:39.822Z,98579.66
2018-05-10T01:04:11.049Z,98582.61
2018-05-10T01:04:42.374Z,98579.30
2018-05-10T01:05:13.566Z,98583.56
2018-05-10T01:05:44.776Z,98583.02
2018-05-10T01:06:16.007Z,98578.29
2018-05-10T01:06:47.285Z,98582.61
2018-05-10T01:07:18.489Z,98583.75
2018-05-10T01:07:49.733Z,98588.63
2018-05-10T01:08:20.950Z,98588.51
2018-05-10T01:08:52.174Z,98587.73
2018-05-10T01:09:23.397Z,98589.05
2018-05-10T01:09:54.631Z,98592.41
2018-05-10T01:10:25.849Z,98589.75
2018-05-10T01:10:57.066Z,98592.33
2018-05-10T01:11:28.295Z,98588.36
2018-05-10T01:11:59.557Z,98588.14
2018-05-10T01:12:30.765Z,98591.98
2018-05-10T01:13:01.988Z,98592.03
2018-05-10T01:13:33.238Z,98593.63
2018-05-10T01:14:04.465Z,98590.04
2018-05-10T01:14:35.682Z,98591.78
2018-05-10T01:15:06.893Z,98593.18
2018-05-10T01:15:38.105Z,98591.23
2018-05-10T01:16:09.317Z,98595.17
2018-05-10T01:16:40.537Z,98595.17
2018-05-10T01:17:11.808Z,98596.49
2018-05-10T01:17:43.023Z,98591.28
2018-05-10T01:18:14.243Z,98597.70
2018-05-10T01:18:45.474Z,98597.93
2018-05-10T01:19:16.704Z,98600.19
2018-05-10T01:19:47.961Z,98596.69
2018-05-10T01:20:19.178Z,98592.27
2018-05-10T01:20:50.385Z,98591.84
2018-05-10T01:21:21.606Z,98596.12
2018-05-10T01:21:52.818Z,98596.12
2018-05-10T01:22:24.025Z,98600.06
2018-05-10T01:22:55.250Z,98598.95
2018-05-10T01:23:26.493Z,98598.80
2018-05-10T01:23:57.698Z,98594.17
2018-05-10T01:24:28.912Z,98595.86
2018-05-10T01:25:00.179Z,98598.92
2018-05-10T01:25:31.392Z,98597.63
2018-05-10T01:26:02.601Z,98606.34
2018-05-10T01:26:33.819Z,98599.03
2018-05-10T01:27:05.035Z,98592.28
2018-05-10T01:27:36.273Z,98599.98
2018-05-10T01:28:07.485Z,98596.73
2018-05-10T01:28:38.742Z,98601.03
2018-05-10T01:29:09.952Z,98602.72
2018-05-10T01:29:41.187Z,98602.77
2018-05-10T01:30:12.402Z,98603.04
2018-05-10T01:30:43.627Z,98601.27
2018-05-10T01:31:14.840Z,98609.06
2018-05-10T01:31:46.053Z,98605.56
2018-05-10T01:32:17.286Z,98608.11
2018-05-10T01:32:48.493Z,98605.22
2018-05-10T01:33:19.725Z,98611.38
2018-05-10T01:33:50.980Z,98607.85
2018-05-10T01:34:22.191Z,98607.69
2018-05-10T01:34:53.431Z,98606.10
2018-05-10T01:35:24.698Z,98606.61
2018-05-10T01:35:55.910Z,98608.41
2018-05-10T01:36:27.120Z,98607.80
2018-05-10T01:36:58.362Z,98607.17
2018-05-10T01:37:29.581Z,98607.44
2018-05-10T01:38:00.808Z,98610.84
2018-05-10T01:38:32.019Z,98605.41
2018-05-10T01:39:03.277Z,98605.84
2018-05-10T01:39:34.494Z,98604.75
2018-05-10T01:40:05.718Z,98604.48
2018-05-10T01:40:36.935Z,98603.88
2018-05-10T01:41:08.149Z,98607.64
2018-05-10T01:41:39.367Z,98605.39
2018-05-10T01:42:10.607Z,98602.32
2018-05-10T01:42:41.837Z,98608.42
2018-05-10T01:43:13.049Z,98608.63
2018-05-10T01:43:44.253Z,98601.96
2018-05-10T01:44:15.506Z,98605.63
2018-05-10T01:44:46.732Z,98600.69
2018-05-10T01:45:17.942Z,98606.16
2018-05-10T01:45:49.158Z,98599.95
2018-05-10T01:46:20.369Z,98602.50
2018-05-10T01:46:51.580Z,98604.10
2018-05-10T01:47:22.810Z,98602.70
2018-05-10T01:47:54.040Z,98597.52
2018-05-10T01:48:25.265Z,98599.95
2018-05-10T01:48:56.477Z,98601.59
2018-05-10T01:49:27.730Z,98599.98
2018-05-10T01:49:58.994Z,98598.59
2018-05-10T01:50:30.201Z,98601.75
2018-05-10T01:51:01.415Z,98598.31
2018-05-10T01:51:32.677Z,98600.75
2018-05-10T01:52:03.911Z,98600.02
2018-05-10T01:52:35.125Z,98597.17
2018-05-10T01:53:06.359Z,98598.98
2018-05-10T01:53:37.618Z,98600.02
2018-05-10T01:54:08.828Z,98600.64
2018-05-10T01:54:40.051Z,98596.83
2018-05-10T01:55:11.273Z,98598.41
2018-05-10T01:55:42.537Z,98604.37
2018-05-10T01:56:13.756Z,98602.48
2018-05-10T01:56:44.974Z,98601.47
2018-05-10T01:57:16.191Z,98605.38
2018-05-10T01:57:47.383Z,98603.88
2018-05-10T01:58:18.584Z,98607.32
2018-05-10T01:58:49.798Z,98604.20
2018-05-10T01:59:21.000Z,98605.06
2018-05-10T01:59:52.197Z,98605.00
2018-05-10T02:00:23.425Z,98606.69
2018-05-10T02:00:54.676Z,98602.30
2018-05-10T02:01:25.904Z,98603.56
2018-05-10T02:01:57.149Z,98608.95
2018-05-10T02:02:28.384Z,98606.72
2018-05-10T02:02:59.589Z,98604.94
2018-05-10T02:03:30.813Z,98607.63
2018-05-10T02:04:02.029Z,98609.33
2018-05-10T02:04:33.241Z,98599.16
2018-05-10T02:05:04.459Z,98598.78
2018-05-10T02:05:35.691Z,98601.80
2018-05-10T02:06:06.965Z,98603.28
2018-05-10T02:06:38.280Z,98602.16
2018-05-10T02:07:09.522Z,98605.86
2018-05-10T02:07:40.806Z,98600.02
2018-05-10T02:08:12.171Z,98600.13
2018-05-10T02:08:43.431Z,98597.55
2018-05-10T02:09:14.706Z,98596.69
2018-05-10T02:09:45.944Z,98598.67
2018-05-10T02:10:17.157Z,98604.69
2018-05-10T02:10:48.361Z,98600.04
2018-05-10T02:11:19.583Z,98603.11
2018-05-10T02:11:50.836Z,98602.56
2018-05-10T02:12:22.037Z,98604.69
2018-05-10T02:12:53.267Z,98606.00
2018-05-10T02:13:24.480Z,98608.09
2018-05-10T02:13:55.703Z,98600.50
2018-05-10T02:14:26.908Z,98602.94
2018-05-10T02:14:58.113Z,98600.95
2018-05-10T02:15:29.334Z,98605.17
2018-05-10T02:16:00.557Z,98607.18
2018-05-10T02:16:31.783Z,98605.41
2018-05-10T02:17:03.037Z,98603.05
2018-05-10T02:17:34.272Z,98607.98
2018-05-10T02:18:05.493Z,98604.42
2018-05-10T02:18:36.712Z,98604.97
2018-05-10T02:19:07.929Z,98604.28
2018-05-10T02:19:39.137Z,98607.47
2018-05-10T02:20:10.436Z,98606.28
2018-05-10T02:20:41.660Z,98609.53
2018-05-10T02:21:12.878Z,98609.53
2018-05-10T02:21:44.109Z,98612.16
2018-05-10T02:22:15.364Z,98603.77
2018-05-10T02:22:46.611Z,98615.69
2018-05-10T02:23:17.825Z,98608.15
2018-05-10T02:23:49.037Z,98614.74
2018-05-10T02:24:20.264Z,98616.89
2018-05-10T02:24:51.514Z,98603.66
2018-05-10T02:25:22.722Z,98611.19
2018-05-10T02:25:53.944Z,98608.15
2018-05-10T02:26:25.152Z,98608.49
2018-05-10T02:26:56.360Z,98607.48
2018-05-10T02:27:27.652Z,98608.18
2018-05-10T02:27:58.901Z,98607.86
2018-05-10T02:28:30.110Z,98605.34
2018-05-10T02:29:01.321Z,98608.78
2018-05-10T02:29:32.607Z,98608.30
2018-05-10T02:30:03.827Z,98610.12
2018-05-10T02:30:35.075Z,98604.40
2018-05-10T02:31:06.311Z,98601.22
2018-05-10T02:31:37.524Z,98603.11
2018-05-10T02:32:08.737Z,98606.00
2018-05-10T02:32:39.971Z,98604.11
2018-05-10T02:33:11.242Z,98599.70
2018-05-10T02:33:42.470Z,98597.95
2018-05-10T02:34:13.692Z,98604.11
2018-05-10T02:34:44.970Z,98598.84
2018-05-10T02:35:16.185Z,98606.23
2018-05-10T02:35:47.445Z,98605.57
2018-05-10T02:36:18.692Z,98602.85
2018-05-10T02:36:49.906Z,98604.83
2018-05-10T02:37:21.117Z,98607.44
2018-05-10T02:37:52.355Z,98602.19
2018-05-10T02:38:23.677Z,98602.94
2018-05-10T02:38:54.969Z,98609.35
2018-05-10T02:39:26.564Z,98607.95
2018-05-10T02:39:58.350Z,98606.45
2018-05-10T02:40:29.662Z,98610.41
2018-05-10T02:41:00.966Z,98608.03
2018-05-10T02:41:32.293Z,98614.51
2018-05-10T02:42:03.631Z,98615.74
2018-05-10T02:42:35.004Z,98610.73
2018-05-10T02:43:06.359Z,98615.86
2018-05-10T02:44:19.633Z,98616.23
2018-05-10T02:44:55.696Z,98620.70
2018-05-10T02:45:26.932Z,98615.38
2018-05-10T02:45:58.167Z,98623.28
2018-05-10T02:46:29.397Z,98523.78
2018-05-10T02:47:00.631Z,98617.04
2018-05-10T02:47:31.957Z,98617.09
2018-05-10T02:48:03.201Z,98618.41
2018-05-10T02:49:11.702Z,98615.38
2018-05-10T02:49:42.932Z,98621.33
2018-05-10T02:50:14.160Z,98620.50
2018-05-10T02:50:45.401Z,98622.45
2018-05-10T02:51:16.632Z,98614.88
2018-05-10T02:51:47.860Z,98617.52
2018-05-10T02:52:19.155Z,98619.70
2018-05-10T02:52:50.428Z,98620.02
2018-05-10T02:53:21.665Z,98618.09
2018-05-10T02:53:52.888Z,98624.17
2018-05-10T02:54:24.134Z,98622.42
2018-05-10T02:54:55.374Z,98617.58
2018-05-10T02:55:26.598Z,98614.13
2018-05-10T02:55:57.856Z,98619.90
2018-05-10T02:56:29.118Z,98626.38
2018-05-10T02:57:00.357Z,98620.53
2018-05-10T02:57:31.631Z,98620.53
2018-05-10T02:58:02.861Z,98620.03
2018-05-10T02:58:34.102Z,98622.73
2018-05-10T02:59:05.331Z,98619.90
2018-05-10T02:59:36.565Z,98625.17
2018-05-10T03:00:07.786Z,98622.42
2018-05-10T03:00:39.039Z,98623.16
2018-05-10T03:01:10.270Z,98618.72
2018-05-10T03:01:41.504Z,98620.90
2018-05-10T03:02:12.739Z,98619.09
2018-05-10T03:02:44.036Z,98621.91
2018-05-10T03:03:15.287Z,98617.20
2018-05-10T03:03:46.544Z,98623.34
2018-05-10T03:04:17.833Z,98621.47
2018-05-10T03:04:49.070Z,98617.38
2018-05-10T03:05:20.317Z,98619.89
2018-05-10T03:05:51.549Z,98620.78
2018-05-10T03:06:22.833Z,98622.05
2018-05-10T03:06:54.102Z,98624.22
2018-05-10T03:07:25.410Z,98626.95
2018-05-10T03:07:58.126Z,98628.70
2018-05-10T03:08:29.408Z,98627.06
2018-05-10T03:09:01.831Z,98631.39
2018-05-10T03:09:33.199Z,98628.32
2018-05-10T03:10:04.565Z,98630.25
2018-05-10T03:10:35.817Z,98627.61
2018-05-10T03:11:07.042Z,98628.06
2018-05-10T03:11:38.280Z,98632.02
2018-05-10T03:12:09.590Z,98629.27
2018-05-10T03:12:40.848Z,98631.50
2018-05-10T03:13:12.082Z,98629.58
2018-05-10T03:13:43.303Z,98628.32
2018-05-10T03:14:14.538Z,98629.70
2018-05-10T03:14:45.785Z,98607.13
2018-05-10T03:15:17.024Z,98631.82
2018-05-10T03:15:48.251Z,98633.45
2018-05-10T03:16:19.516Z,98632.91
2018-05-10T03:16:50.763Z,98637.87
2018-05-10T03:17:22.093Z,98633.08
2018-05-10T03:17:53.312Z,98630.96
2018-05-10T03:18:24.627Z,98629.70
2018-05-10T03:18:55.866Z,98635.28
2018-05-10T03:19:27.095Z,98635.66
2018-05-10T03:19:58.328Z,98641.51
2018-05-10T03:20:29.555Z,98637.67
2018-05-10T03:21:00.801Z,98641.05
2018-05-10T03:21:32.082Z,98638.75
2018-05-10T03:22:03.353Z,98639.99
2018-05-10T03:22:34.757Z,98637.44
2018-05-10T03:23:05.994Z,98641.77
2018-05-10T03:23:37.293Z,98636.98
2018-05-10T03:24:08.562Z,98640.05
2018-05-10T03:24:39.829Z,98644.78
2018-05-10T03:25:11.127Z,98646.95
2018-05-10T03:25:42.352Z,98643.40
2018-05-10T03:26:13.608Z,98642.08
2018-05-10T03:26:44.841Z,98648.67
2018-05-10T03:27:16.066Z,98648.98
2018-05-10T03:27:47.304Z,98648.93
2018-05-10T03:28:18.541Z,98650.68
2018-05-10T03:28:49.785Z,98650.19
2018-05-10T03:29:21.011Z,98652.37
2018-05-10T03:29:52.353Z,98647.52
2018-05-10T03:30:23.579Z,98651.43
2018-05-10T03:30:54.808Z,98652.17
2018-05-10T03:31:26.032Z,98655.59
2018-05-10T03:31:57.323Z,98654.84
2018-05-10T03:32:28.566Z,98652.28
2018-05-10T03:32:59.791Z,98652.34
2018-05-10T03:33:31.030Z,98647.22
2018-05-10T03:34:02.278Z,98651.69
2018-05-10T03:34:33.511Z,98654.23
2018-05-10T03:35:04.804Z,98653.23
2018-05-10T03:35:36.062Z,98653.38
2018-05-10T03:36:07.318Z,98654.00
2018-05-10T03:36:38.601Z,98653.40
2018-05-10T03:37:10.077Z,98654.45
2018-05-10T03:37:41.325Z,98655.58
2018-05-10T03:38:12.569Z,98657.30
2018-05-10T03:38:43.807Z,98653.71
2018-05-10T03:39:15.045Z,98652.87
2018-05-10T03:39:46.276Z,98655.52
2018-05-10T03:40:17.505Z,98656.41
2018-05-10T03:40:48.758Z,98656.89
2018-05-10T03:41:19.979Z,98659.53
2018-05-10T03:41:51.254Z,98663.44
2018-05-10T03:42:22.479Z,98668.53
2018-05-10T03:42:53.776Z,98658.35
2018-05-10T03:43:24.989Z,98661.42
2018-05-10T03:43:56.230Z,98664.71
2018-05-10T03:44:27.478Z,98661.13
2018-05-10T03:44:58.714Z,98665.09
2018-05-10T03:45:29.964Z,98663.34
2018-05-10T03:46:01.226Z,98662.88
2018-05-10T03:46:32.472Z,98661.93
2018-05-10T03:47:03.735Z,98666.66
2018-05-10T03:47:35.590Z,98663.65
2018-05-10T03:48:06.821Z,98669.47
2018-05-10T03:48:38.022Z,98665.52
2018-05-10T03:49:09.270Z,98667.16
2018-05-10T03:49:40.521Z,98667.84
2018-05-10T03:50:11.773Z,98668.09
2018-05-10T03:50:43.005Z,98667.97
2018-05-10T03:51:14.261Z,98670.23
2018-05-10T03:51:45.472Z,98669.66
2018-05-10T03:52:16.730Z,98666.48
2018-05-10T03:52:48.007Z,98664.58
2018-05-10T03:53:19.246Z,98669.48
2018-05-10T03:53:50.474Z,98663.54
2018-05-10T03:54:21.771Z,98670.45
2018-05-10T03:54:53.943Z,98663.23
2018-05-10T03:55:25.440Z,98668.64
2018-05-10T03:55:56.675Z,98669.64
2018-05-10T03:56:27.914Z,98668.20
2018-05-10T03:56:59.189Z,98672.05
2018-05-10T03:57:30.392Z,98669.41
2018-05-10T03:58:01.617Z,98666.37
2018-05-10T03:58:32.846Z,98671.80
2018-05-10T03:59:04.068Z,98669.16
2018-05-10T03:59:35.365Z,98670.02
2018-05-10T04:00:06.739Z,98676.88
2018-05-10T04:00:37.960Z,98670.09
2018-05-10T04:01:09.188Z,98673.23
2018-05-10T04:01:41.337Z,98674.61
2018-05-10T04:02:12.617Z,98675.67
2018-05-10T04:02:43.837Z,98675.49
2018-05-10T04:03:15.056Z,98673.99
2018-05-10T04:03:46.266Z,98680.45
2018-05-10T04:04:17.477Z,98677.26
2018-05-10T04:04:48.854Z,98680.84
2018-05-10T04:05:20.076Z,98678.12
2018-05-10T04:05:51.329Z,98675.48
2018-05-10T04:06:22.549Z,98677.26
2018-05-10T04:06:53.774Z,98680.39
2018-05-10T04:07:24.989Z,98682.08
2018-05-10T04:07:56.210Z,98670.39
2018-05-10T04:08:27.436Z,98679.05
2018-05-10T04:08:58.669Z,98674.55
2018-05-10T04:09:29.896Z,98676.30
2018-05-10T04:10:01.173Z,98672.79
2018-05-10T04:10:32.409Z,98674.34
2018-05-10T04:11:03.625Z,98677.25
2018-05-10T04:11:34.852Z,98681.53
2018-05-10T04:12:06.051Z,98679.56
2018-05-10T04:12:37.284Z,98556.48
2018-05-10T04:13:08.478Z,98672.14
2018-05-10T04:13:39.699Z,98678.37
2018-05-10T04:14:10.927Z,98679.69
2018-05-10T04:14:42.915Z,98675.61
2018-05-10T04:15:14.165Z,98674.28
2018-05-10T04:15:45.378Z,98672.97
2018-05-10T04:16:16.638Z,98673.46
2018-05-10T04:16:47.860Z,98676.67
2018-05-10T04:17:19.077Z,98677.88
2018-05-10T04:17:50.295Z,98671.64
2018-05-10T04:18:21.509Z,98669.64
2018-05-10T04:18:52.721Z,98676.05
2018-05-10T04:19:23.947Z,98674.05
2018-05-10T04:19:55.196Z,98672.61
2018-05-10T04:20:26.453Z,98674.55
2018-05-10T04:20:57.660Z,98677.72
2018-05-10T04:21:28.870Z,98675.72
2018-05-10T04:22:00.082Z,98678.47
2018-05-10T04:22:31.307Z,98673.82
2018-05-10T04:23:02.523Z,98675.91
2018-05-10T04:23:33.738Z,98676.36
2018-05-10T04:24:04.957Z,98683.98
2018-05-10T04:24:36.181Z,98677.89
2018-05-10T04:25:07.425Z,98677.88
2018-05-10T04:25:38.649Z,98678.02
2018-05-10T04:26:09.894Z,98680.39
2018-05-10T04:26:41.136Z,98678.95
2018-05-10T04:27:12.377Z,98679.62
2018-05-10T04:27:43.593Z,98685.96
2018-05-10T04:28:14.849Z,98687.47
2018-05-10T04:28:46.100Z,98684.59
2018-05-10T04:29:17.311Z,98684.14
2018-05-10T04:29:48.525Z,98682.38
2018-05-10T04:30:19.794Z,98683.64
2018-05-10T04:30:50.997Z,98683.83
2018-05-10T04:31:22.210Z,98679.92
2018-05-10T04:31:53.448Z,98683.39
2018-05-10T04:32:24.685Z,98684.76
2018-05-10T04:32:55.909Z,98682.00
2018-05-10T04:33:27.131Z,98680.55
2018-05-10T04:33:58.348Z,98679.48
2018-05-10T04:34:29.558Z,98677.70
2018-05-10T04:35:00.781Z,98676.01
2018-05-10T04:35:32.044Z,98684.14
2018-05-10T04:36:03.259Z,98680.92
2018-05-10T04:36:34.468Z,98676.69
2018-05-10T04:37:05.725Z,98683.23
2018-05-10T04:37:36.937Z,98682.97
2018-05-10T04:38:08.153Z,98689.18
2018-05-10T04:38:39.383Z,98686.94
2018-05-10T04:39:10.626Z,98689.23
2018-05-10T04:39:41.822Z,98689.64
2018-05-10T04:40:13.049Z,98689.18
2018-05-10T04:40:44.314Z,98681.71
2018-05-10T04:41:15.529Z,98683.65
2018-05-10T04:41:46.749Z,98687.67
2018-05-10T04:42:18.040Z,98682.33
2018-05-10T04:42:49.229Z,98687.98
2018-05-10T04:43:20.476Z,98685.22
2018-05-10T04:43:51.679Z,98688.59
2018-05-10T04:44:22.896Z,98684.33
2018-05-10T04:44:54.105Z,98690.23
2018-05-10T04:45:25.330Z,98686.52
2018-05-10T04:45:56.686Z,98684.67
2018-05-10T04:46:27.923Z,98686.17
2018-05-10T04:46:59.157Z,98685.22
2018-05-10T04:47:30.370Z,98685.22
2018-05-10T04:48:01.591Z,98684.91
2018-05-10T04:48:32.809Z,98684.20
2018-05-10T04:49:04.003Z,98691.71
2018-05-10T04:49:35.216Z,98687.50
2018-05-10T04:50:06.433Z,98691.19
2018-05-10T04:50:37.671Z,98685.83
2018-05-10T04:51:08.926Z,98688.84
2018-05-10T04:51:40.129Z,98693.89
2018-05-10T04:52:11.341Z,98688.60
2018-05-10T04:52:42.536Z,98692.20
2018-05-10T04:53:13.778Z,98698.19
2018-05-10T04:53:45.031Z,98693.80
2018-05-10T04:54:16.248Z,98687.68
2018-05-10T04:54:47.460Z,98693.44
2018-05-10T04:55:18.682Z,98697.61
2018-05-10T04:55:49.918Z,98697.88
2018-05-10T04:56:21.185Z,98692.94
2018-05-10T04:56:52.403Z,98696.69
2018-05-10T04:57:23.637Z,98698.77
2018-05-10T04:57:54.853Z,98698.25
2018-05-10T04:58:26.118Z,98697.70
2018-05-10T04:58:57.334Z,98694.75
2018-05-10T04:59:28.569Z,98696.96
2018-05-10T04:59:59.777Z,98700.22
2018-05-10T05:00:30.981Z,98702.09
2018-05-10T05:01:02.887Z,98706.73
2018-05-10T05:01:34.141Z,98702.56
2018-05-10T05:02:05.364Z,98697.86
2018-05-10T05:02:36.577Z,98700.41
2018-05-10T05:03:07.789Z,98697.39
2018-05-10T05:03:39.069Z,98705.91
2018-05-10T05:04:10.325Z,98704.06
2018-05-10T05:04:41.532Z,98701.75
2018-05-10T05:05:12.741Z,98702.03
2018-05-10T05:05:43.953Z,98707.20
2018-05-10T05:06:15.173Z,98704.62
2018-05-10T05:06:46.458Z,98706.55
2018-05-10T05:07:17.677Z,98708.21
2018-05-10T05:07:52.692Z,98706.13
2018-05-10T05:08:24.460Z,98706.89
2018-05-10T05:08:56.163Z,98710.92
2018-05-10T05:09:27.486Z,98713.75
2018-05-10T05:10:02.245Z,98709.72
2018-05-10T05:10:35.498Z,98710.09
2018-05-10T05:11:11.019Z,98714.23
2018-05-10T05:12:24.326Z,98711.75
2018-05-10T05:12:56.595Z,98716.45
2018-05-10T05:14:05.814Z,98709.74
2018-05-10T05:14:38.089Z,98714.11
2018-05-10T05:15:10.888Z,98708.48
2018-05-10T05:15:42.912Z,98711.61
2018-05-10T05:16:16.709Z,98712.52
2018-05-10T05:16:49.626Z,98707.11
2018-05-10T05:17:24.028Z,98715.66
2018-05-10T05:17:58.276Z,98713.19
2018-05-10T05:18:33.283Z,98707.83
2018-05-10T05:19:06.083Z,98704.30
2018-05-10T05:19:39.063Z,98707.67
2018-05-10T05:20:16.137Z,98711.27
2018-05-10T05:20:48.850Z,98706.25
2018-05-10T05:21:21.952Z,98710.20
2018-05-10T05:21:53.850Z,98711.88
2018-05-10T05:22:31.166Z,98707.13
2018-05-10T05:23:03.295Z,98712.37
2018-05-10T05:23:36.617Z,98708.97
2018-05-10T05:24:08.966Z,98706.98
2018-05-10T05:24:41.549Z,98706.14
2018-05-10T05:25:12.852Z,98708.31
2018-05-10T05:25:44.089Z,98707.20
2018-05-10T05:26:15.381Z,98710.80
2018-05-10T05:26:46.677Z,98704.36
2018-05-10T05:27:17.893Z,98711.41
2018-05-10T05:27:49.114Z,98709.72
2018-05-10T05:28:20.345Z,98714.21
2018-05-10T05:28:51.613Z,98712.84
2018-05-10T05:29:22.835Z,98712.41
2018-05-10T05:29:54.061Z,98712.89
2018-05-10T05:30:25.308Z,98711.03
2018-05-10T05:30:56.520Z,98715.84
2018-05-10T05:31:27.737Z,98713.20
2018-05-10T05:31:58.957Z,98706.13
2018-05-10T05:32:30.183Z,98715.64
2018-05-10T05:33:01.403Z,98713.70
2018-05-10T05:33:32.650Z,98711.44
2018-05-10T05:34:03.912Z,98699.75
2018-05-10T05:34:35.126Z,98711.42
2018-05-10T05:35:06.353Z,98710.49
2018-05-10T05:35:37.610Z,98708.11
2018-05-10T05:36:08.840Z,98708.84
2018-05-10T05:36:40.128Z,98710.57
2018-05-10T05:37:11.337Z,98714.48
2018-05-10T05:37:42.573Z,98681.72
2018-05-10T05:38:13.849Z,98716.92
2018-05-10T05:38:45.061Z,98719.27
2018-05-10T05:39:16.347Z,98717.45
2018-05-10T05:39:47.606Z,98719.41
2018-05-10T05:40:18.831Z,98716.49
2018-05-10T05:40:50.051Z,98714.70
2018-05-10T05:41:21.329Z,98716.82
2018-05-10T05:41:52.553Z,98719.36
2018-05-10T05:42:27.835Z,98720.42
2018-05-10T05:43:01.061Z,98719.50
2018-05-10T05:43:34.992Z,98718.56
2018-05-10T05:44:10.141Z,98720.02
2018-05-10T05:45:20.338Z,98721.41
2018-05-10T05:45:53.003Z,98718.88
2018-05-10T05:46:24.366Z,98721.94
2018-05-10T05:46:57.710Z,98722.25
2018-05-10T05:47:29.051Z,98726.27
2018-05-10T05:48:00.328Z,98731.06
2018-05-10T05:48:34.530Z,98727.43
2018-05-10T05:49:06.313Z,98728.85
2018-05-10T05:49:37.596Z,98731.80
2018-05-10T05:50:08.877Z,98726.56
2018-05-10T05:50:40.143Z,98673.74
2018-05-10T05:51:12.643Z,98732.62
2018-05-10T05:51:43.852Z,98726.37
2018-05-10T05:52:15.109Z,98735.64
2018-05-10T05:52:46.345Z,98733.15
2018-05-10T05:53:17.591Z,98734.44
2018-05-10T05:53:48.872Z,98724.47
2018-05-10T05:54:20.195Z,98737.02
2018-05-10T05:54:51.460Z,98732.53
2018-05-10T05:55:22.731Z,98730.97
2018-05-10T05:55:53.997Z,98733.22
2018-05-10T05:56:25.289Z,98735.19
2018-05-10T05:56:56.566Z,98736.97
2018-05-10T05:57:27.794Z,98736.69
2018-05-10T05:57:59.044Z,98739.06
2018-05-10T05:58:30.381Z,98738.68
2018-05-10T05:59:01.693Z,98739.20
2018-05-10T05:59:32.949Z,98739.44
2018-05-10T06:00:04.179Z,98741.18
2018-05-10T06:00:35.422Z,98739.78
2018-05-10T06:01:06.729Z,98740.73
2018-05-10T06:01:38.259Z,98739.92
2018-05-10T06:02:09.514Z,98743.67
2018-05-10T06:02:40.746Z,98740.31
2018-05-10T06:03:11.966Z,98736.81
2018-05-10T06:03:43.225Z,98743.02
2018-05-10T06:04:14.454Z,98736.62
2018-05-10T06:04:46.070Z,98732.86
2018-05-10T06:05:17.351Z,98737.70
2018-05-10T06:05:48.600Z,98736.53
2018-05-10T06:06:19.895Z,98735.64
2018-05-10T06:06:51.243Z,98732.11
2018-05-10T06:07:22.470Z,98735.06
2018-05-10T06:07:53.717Z,98732.41
2018-05-10T06:08:24.943Z,98730.66
2018-05-10T06:08:56.186Z,98734.69
2018-05-10T06:09:27.438Z,98739.88
2018-05-10T06:09:58.680Z,98733.22
2018-05-10T06:10:29.918Z,98733.56
2018-05-10T06:11:01.175Z,98732.69
2018-05-10T06:11:32.451Z,98731.42